Airport View

Enter AWOS ICAO identifier for current METAR.

ex. KFNL

KVPS 192126Z AUTO 22012G15KT 10SM BKN021 BKN150 29/23 A2999 RMK AO2 SLP162 $

19 Aug 2019 21:46

Other Area AWOS: KDTS - KHRT - KEGI - KCEW

TAF AMD KVPS 191945Z 1919/2023 24012G18KT 9999 BKN020 BKN120 BKN200 QNH3000INS TEMPO 1919/1923 VRB18G28KT 4800 -TSRA BKN015CB BKN040 BECMG 1923/2000 27009KT 9999 FEW130 QNH2998INS BECMG 2005/2006 26006KT 9000 BR SCT018 QNH3005INS BECMG 2008/2009 20006KT 9999 VCTS SCT020CB QNH3002INS BECMG 2012/2013 18009KT 9999 NSW FEW020 BKN060 BKN200 QNH3002INS BECMG 2016/2017 17012G18KT 6000 -SHRA VCTS BKN025CB BKN060 BKN200 QNH3000INS TX30/1921Z TN24/2011Z